createdAt,value
2022-10-13T00:02:08.316Z,78.60
2022-10-13T00:04:39.872Z,78.40
2022-10-13T00:07:12.462Z,75.70
2022-10-13T00:09:44.000Z,78.50
2022-10-13T00:12:16.959Z,77.50
2022-10-13T00:14:49.161Z,76.90
2022-10-13T00:17:20.829Z,78.00
2022-10-13T00:19:52.385Z,75.20
2022-10-13T00:22:23.939Z,79.20
2022-10-13T00:24:56.175Z,80.40
2022-10-13T00:27:27.867Z,82.00
2022-10-13T00:29:59.515Z,82.50
2022-10-13T00:32:31.567Z,78.30
2022-10-13T00:35:03.072Z,80.30
2022-10-13T00:37:34.681Z,72.10
2022-10-13T00:40:09.242Z,77.80
2022-10-13T00:42:43.478Z,74.50
2022-10-13T00:45:27.990Z,72.50
2022-10-13T00:48:02.903Z,76.40
2022-10-13T00:50:40.997Z,81.30
2022-10-13T00:53:15.951Z,74.70
2022-10-13T00:55:49.075Z,71.30
2022-10-13T00:58:31.692Z,70.10
2022-10-13T01:01:04.983Z,58.50
2022-10-13T01:03:37.952Z,61.50
2022-10-13T01:06:11.021Z,61.60
2022-10-13T01:08:42.494Z,62.40
2022-10-13T01:11:33.718Z,69.50
2022-10-13T01:14:12.944Z,61.20
2022-10-13T01:16:51.458Z,71.00
2022-10-13T01:20:01.730Z,73.70
2022-10-13T01:22:53.116Z,76.90
2022-10-13T01:25:44.773Z,76.90
2022-10-13T01:28:36.622Z,74.10
2022-10-13T01:31:17.361Z,73.30
2022-10-13T01:33:56.168Z,68.70
2022-10-13T01:36:33.021Z,78.80
2022-10-13T01:39:10.693Z,81.80
2022-10-13T01:41:47.438Z,71.60
2022-10-13T01:44:26.374Z,69.40
2022-10-13T01:46:58.398Z,65.30
2022-10-13T01:49:35.225Z,71.80
2022-10-13T01:52:15.009Z,70.20
2022-10-13T01:54:51.855Z,70.70
2022-10-13T01:57:36.174Z,69.80
2022-10-13T02:00:13.132Z,59.90
2022-10-13T02:03:02.957Z,60.60
2022-10-13T02:05:44.000Z,60.70
2022-10-13T02:08:23.357Z,63.20
2022-10-13T02:11:00.454Z,57.80
2022-10-13T02:13:34.853Z,57.80
2022-10-13T02:16:07.748Z,57.70
2022-10-13T02:18:39.629Z,57.30
2022-10-13T02:21:12.677Z,57.70
2022-10-13T02:23:45.197Z,51.90
2022-10-13T02:26:17.266Z,48.70
2022-10-13T02:28:48.886Z,44.70
2022-10-13T02:31:21.479Z,44.50
2022-10-13T02:33:53.035Z,50.00
2022-10-13T02:36:25.124Z,49.50
2022-10-13T02:38:56.762Z,47.50
2022-10-13T02:41:28.523Z,48.00
2022-10-13T02:44:00.052Z,56.10
2022-10-13T02:46:31.587Z,60.80
2022-10-13T02:49:03.193Z,58.20
2022-10-13T02:51:39.714Z,53.40
2022-10-13T02:54:12.039Z,61.20
2022-10-13T02:56:43.685Z,60.40
2022-10-13T02:59:15.165Z,62.70
2022-10-13T03:01:46.632Z,64.90
2022-10-13T03:04:18.240Z,59.20
2022-10-13T03:06:49.862Z,54.00
2022-10-13T03:09:21.472Z,56.50
2022-10-13T03:11:52.942Z,54.80
2022-10-13T03:14:24.414Z,52.40
2022-10-13T03:16:55.932Z,57.30
2022-10-13T03:19:27.589Z,65.20
2022-10-13T03:21:59.146Z,58.80
2022-10-13T03:24:31.027Z,54.00
2022-10-13T03:27:02.580Z,56.30
2022-10-13T03:29:34.708Z,60.50
2022-10-13T03:32:07.007Z,64.90
2022-10-13T03:34:38.537Z,57.30
2022-10-13T03:37:11.421Z,65.90
2022-10-13T03:39:43.005Z,72.70
2022-10-13T03:42:14.652Z,67.40
2022-10-13T03:44:46.317Z,65.10
2022-10-13T03:47:17.862Z,61.40
2022-10-13T03:49:49.469Z,54.70
2022-10-13T03:52:21.438Z,51.80
2022-10-13T03:54:54.575Z,52.10
2022-10-13T03:57:26.074Z,49.20
2022-10-13T03:59:57.879Z,56.60
2022-10-13T04:02:29.611Z,55.80
2022-10-13T04:05:01.213Z,63.00
2022-10-13T04:07:33.100Z,57.70
2022-10-13T04:10:06.883Z,156.40
2022-10-13T04:12:41.827Z,181.90
2022-10-13T04:15:14.252Z,175.70
2022-10-13T04:17:45.937Z,78.30
2022-10-13T04:20:17.590Z,73.60
2022-10-13T04:22:49.173Z,78.10
2022-10-13T04:25:21.042Z,137.50
2022-10-13T04:27:52.679Z,115.20
2022-10-13T04:30:24.339Z,101.40
2022-10-13T04:32:55.821Z,116.20
2022-10-13T04:35:27.537Z,115.50
2022-10-13T04:37:59.126Z,104.10
2022-10-13T04:40:30.758Z,97.60
2022-10-13T04:43:02.792Z,106.20
2022-10-13T04:45:34.480Z,86.00
2022-10-13T04:48:06.352Z,83.10
2022-10-13T04:50:37.805Z,81.60
2022-10-13T04:53:09.341Z,81.10
2022-10-13T04:55:40.883Z,86.20
2022-10-13T04:58:12.565Z,79.50
2022-10-13T05:00:48.583Z,87.40
2022-10-13T05:03:20.255Z,74.10
2022-10-13T05:05:51.831Z,69.90
2022-10-13T05:08:23.919Z,59.90
2022-10-13T05:10:59.732Z,99.90
2022-10-13T05:13:32.028Z,82.60
2022-10-13T05:16:06.715Z,73.20
2022-10-13T05:18:39.422Z,69.10
2022-10-13T05:21:13.707Z,57.90
2022-10-13T05:23:45.978Z,50.60
2022-10-13T05:26:19.406Z,61.10
2022-10-13T05:28:51.091Z,60.10
2022-10-13T05:31:24.991Z,73.50
2022-10-13T05:33:57.201Z,66.00
2022-10-13T05:36:31.604Z,55.40
2022-10-13T05:39:05.803Z,53.30
2022-10-13T05:41:39.571Z,57.90
2022-10-13T05:44:11.952Z,56.10
2022-10-13T05:46:43.572Z,54.60
2022-10-13T05:49:15.902Z,52.50
2022-10-13T05:51:50.324Z,51.70
2022-10-13T05:54:30.467Z,58.90
2022-10-13T05:57:07.930Z,52.60
2022-10-13T05:59:45.272Z,53.80
2022-10-13T06:02:20.327Z,53.80
2022-10-13T06:04:55.971Z,66.20
2022-10-13T06:07:27.602Z,69.20
2022-10-13T06:09:59.893Z,71.70
2022-10-13T06:12:31.689Z,76.50
2022-10-13T06:15:03.281Z,58.10
2022-10-13T06:17:36.891Z,54.90
2022-10-13T06:22:39.920Z,42.00
2022-10-13T06:25:12.689Z,44.20
2022-10-13T06:27:44.351Z,43.70
2022-10-13T06:30:16.381Z,42.00
2022-10-13T06:32:47.840Z,41.90
2022-10-13T06:35:19.816Z,39.30
2022-10-13T06:37:53.190Z,45.10
2022-10-13T06:40:24.743Z,41.80
2022-10-13T06:42:56.324Z,39.30
2022-10-13T06:45:27.980Z,43.90
2022-10-13T06:47:59.643Z,45.10
2022-10-13T06:50:32.424Z,40.60
2022-10-13T06:53:04.286Z,46.00
2022-10-13T06:55:35.908Z,45.30
2022-10-13T06:58:07.508Z,46.60
2022-10-13T07:00:41.547Z,45.60
2022-10-13T07:03:14.072Z,44.00
2022-10-13T07:05:45.605Z,43.10
2022-10-13T07:08:17.110Z,48.60
2022-10-13T07:10:48.951Z,53.20
2022-10-13T07:15:57.063Z,59.40
2022-10-13T07:18:28.624Z,56.00
2022-10-13T07:21:02.810Z,45.80
2022-10-13T07:23:34.360Z,52.70
2022-10-13T07:26:10.732Z,46.10
2022-10-13T07:28:44.210Z,48.60
2022-10-13T07:31:18.080Z,41.70
2022-10-13T07:33:51.446Z,41.90
2022-10-13T07:36:23.020Z,35.50
2022-10-13T07:38:54.872Z,44.50
2022-10-13T07:41:26.466Z,37.40
2022-10-13T07:43:58.708Z,34.10
2022-10-13T07:46:30.365Z,32.40
2022-10-13T07:49:01.917Z,30.50
2022-10-13T07:51:33.480Z,25.30
2022-10-13T07:54:04.997Z,27.40
2022-10-13T07:56:36.571Z,26.80
2022-10-13T07:59:08.303Z,25.10
2022-10-13T08:01:41.165Z,23.10
2022-10-13T08:04:13.093Z,20.30
2022-10-13T08:06:44.887Z,20.50
2022-10-13T08:09:16.796Z,19.20
2022-10-13T08:11:48.993Z,21.30
2022-10-13T08:14:20.744Z,22.40
2022-10-13T08:16:53.737Z,22.20
2022-10-13T08:19:28.502Z,18.10
2022-10-13T08:24:31.672Z,21.70
2022-10-13T08:27:03.319Z,18.20
2022-10-13T08:29:34.945Z,20.70
2022-10-13T08:32:06.793Z,19.90
2022-10-13T08:34:38.391Z,19.50
2022-10-13T08:37:16.100Z,18.90
2022-10-13T08:39:47.905Z,18.00
2022-10-13T08:42:22.684Z,17.90
2022-10-13T08:45:22.233Z,21.40
2022-10-13T08:47:53.755Z,19.60
2022-10-13T08:50:28.407Z,16.10
2022-10-13T08:53:03.203Z,17.10
2022-10-13T08:55:39.125Z,17.90
2022-10-13T08:58:19.982Z,19.50
2022-10-13T09:00:58.787Z,17.10
2022-10-13T09:03:31.762Z,16.80
2022-10-13T09:06:12.542Z,17.40
2022-10-13T09:08:50.425Z,14.50
2022-10-13T09:11:23.115Z,14.30
2022-10-13T09:13:59.431Z,17.70
2022-10-13T09:16:35.587Z,16.00
2022-10-13T09:19:23.818Z,15.30
2022-10-13T09:21:57.290Z,16.00
2022-10-13T09:24:29.509Z,16.80
2022-10-13T09:27:13.334Z,17.70
2022-10-13T09:29:45.822Z,14.50
2022-10-13T09:32:21.968Z,15.00
2022-10-13T09:34:55.620Z,15.30
2022-10-13T09:37:28.327Z,15.40
2022-10-13T09:40:24.765Z,13.70
2022-10-13T09:42:56.943Z,15.30
2022-10-13T09:45:30.527Z,14.80
2022-10-13T09:48:07.102Z,13.40
2022-10-13T09:50:39.428Z,13.50
2022-10-13T09:53:25.484Z,13.40
2022-10-13T09:56:18.664Z,12.60
2022-10-13T09:58:58.336Z,14.70
2022-10-13T10:01:35.877Z,13.50
2022-10-13T10:04:12.400Z,13.90
2022-10-13T10:06:45.455Z,13.10
2022-10-13T10:09:36.547Z,11.10
2022-10-13T10:12:14.238Z,11.00
2022-10-13T10:14:46.007Z,14.10
2022-10-13T10:17:26.370Z,13.20
2022-10-13T10:20:08.368Z,10.00
2022-10-13T10:22:49.220Z,14.40
2022-10-13T10:25:33.512Z,11.80
2022-10-13T10:28:23.130Z,11.90
2022-10-13T10:31:03.332Z,10.70
2022-10-13T10:33:45.632Z,11.20
2022-10-13T10:36:21.371Z,8.40
2022-10-13T10:38:57.095Z,9.60
2022-10-13T10:41:46.926Z,12.30
2022-10-13T10:44:22.620Z,9.70
2022-10-13T10:46:58.839Z,10.10
2022-10-13T10:49:34.291Z,8.00
2022-10-13T10:52:12.839Z,8.70
2022-10-13T10:54:53.620Z,10.60
2022-10-13T10:57:34.771Z,9.50
2022-10-13T11:00:11.725Z,8.80
2022-10-13T11:02:57.016Z,8.70
2022-10-13T11:05:53.875Z,8.50
2022-10-13T11:08:40.995Z,9.00
2022-10-13T11:11:40.287Z,7.90
2022-10-13T11:14:29.083Z,12.30
2022-10-13T11:17:19.616Z,6.80
2022-10-13T11:19:51.563Z,7.10
2022-10-13T11:22:25.334Z,9.60
2022-10-13T11:25:27.902Z,9.00
2022-10-13T11:28:00.216Z,6.60
2022-10-13T11:30:50.337Z,8.50
2022-10-13T11:33:56.271Z,6.50
2022-10-13T11:36:56.777Z,7.20
2022-10-13T11:40:01.764Z,6.20
2022-10-13T11:42:59.870Z,6.20
2022-10-13T11:45:49.360Z,7.40
2022-10-13T11:48:45.890Z,6.50
2022-10-13T11:51:29.743Z,10.30
2022-10-13T11:54:16.137Z,5.50
2022-10-13T11:56:52.106Z,7.50
2022-10-13T11:59:27.757Z,9.10
2022-10-13T12:02:07.446Z,7.40
2022-10-13T12:04:46.329Z,8.00
2022-10-13T12:07:18.908Z,8.50
2022-10-13T12:09:56.223Z,7.40
2022-10-13T12:12:28.416Z,8.40
2022-10-13T12:15:02.789Z,7.80
2022-10-13T12:17:39.024Z,8.50
2022-10-13T12:20:23.876Z,6.90
2022-10-13T12:22:56.856Z,8.10
2022-10-13T12:25:33.760Z,9.40
2022-10-13T12:28:06.049Z,6.90
2022-10-13T12:30:37.974Z,7.00
2022-10-13T12:33:24.827Z,7.80
2022-10-13T12:35:56.596Z,9.00
2022-10-13T12:38:28.197Z,8.10
2022-10-13T12:41:00.226Z,5.10
2022-10-13T12:43:32.079Z,7.50
2022-10-13T12:46:03.838Z,6.60
2022-10-13T12:48:38.381Z,7.40
2022-10-13T12:51:21.183Z,8.10
2022-10-13T12:53:52.841Z,9.70
2022-10-13T12:56:30.836Z,6.60
2022-10-13T12:59:03.731Z,6.30
2022-10-13T13:01:36.923Z,8.70
2022-10-13T13:04:28.725Z,8.90
2022-10-13T13:07:01.538Z,4.10
2022-10-13T13:09:34.948Z,7.00
2022-10-13T13:14:56.548Z,9.50
2022-10-13T13:17:57.131Z,10.70
2022-10-13T13:20:27.449Z,7.10
2022-10-13T13:23:00.299Z,6.40
2022-10-13T13:25:31.983Z,8.60
2022-10-13T13:28:11.597Z,8.50
2022-10-13T13:30:44.008Z,6.90
2022-10-13T13:33:15.508Z,10.80
2022-10-13T13:35:49.058Z,10.20
2022-10-13T13:38:21.715Z,13.00
2022-10-13T13:40:53.287Z,10.30
2022-10-13T13:43:24.971Z,11.20
2022-10-13T13:45:56.710Z,11.70
2022-10-13T13:48:29.379Z,12.70
2022-10-13T13:51:00.939Z,12.90
2022-10-13T13:53:32.602Z,14.10
2022-10-13T13:56:06.339Z,15.10
2022-10-13T13:58:38.738Z,13.80
2022-10-13T14:01:10.637Z,16.40
2022-10-13T14:03:42.337Z,10.60
2022-10-13T14:06:20.047Z,16.20
2022-10-13T14:08:51.955Z,14.60
2022-10-13T14:11:23.488Z,13.00
2022-10-13T14:13:54.997Z,13.20
2022-10-13T14:16:26.517Z,13.30
2022-10-13T14:18:58.891Z,16.50
2022-10-13T14:21:30.445Z,17.80
2022-10-13T14:24:02.613Z,15.10
2022-10-13T14:26:35.169Z,13.80
2022-10-13T14:29:06.834Z,13.60
2022-10-13T14:31:38.504Z,16.20
2022-10-13T14:34:10.005Z,12.00
2022-10-13T14:36:41.536Z,15.40
2022-10-13T14:39:13.168Z,15.00
2022-10-13T14:41:44.722Z,14.20
2022-10-13T14:44:16.893Z,12.20
2022-10-13T14:46:48.445Z,12.70
2022-10-13T14:49:20.010Z,16.30
2022-10-13T14:51:51.472Z,15.00
2022-10-13T14:54:23.015Z,15.30
2022-10-13T14:56:54.586Z,17.80
2022-10-13T14:59:26.094Z,16.30
2022-10-13T15:01:57.675Z,17.40
2022-10-13T15:04:29.249Z,16.70
2022-10-13T15:07:00.784Z,16.90
2022-10-13T15:09:45.158Z,16.50
2022-10-13T15:12:24.084Z,13.80
2022-10-13T15:14:56.393Z,16.70
2022-10-13T15:17:30.770Z,18.20
2022-10-13T15:20:03.965Z,18.20
2022-10-13T15:22:35.551Z,16.20
2022-10-13T15:25:10.417Z,17.70
2022-10-13T15:27:42.454Z,19.10
2022-10-13T15:30:15.804Z,20.60
2022-10-13T15:32:50.235Z,18.40
2022-10-13T15:35:21.776Z,19.20
2022-10-13T15:37:53.233Z,20.90
2022-10-13T15:40:24.799Z,23.20
2022-10-13T15:42:56.643Z,20.90
2022-10-13T15:45:28.505Z,19.30
2022-10-13T15:48:00.172Z,22.40
2022-10-13T15:50:32.035Z,26.20
2022-10-13T15:53:03.647Z,25.60
2022-10-13T15:55:36.489Z,24.10
2022-10-13T15:58:12.808Z,28.70
2022-10-13T16:00:47.383Z,27.10
2022-10-13T16:03:19.917Z,24.80
2022-10-13T16:05:51.588Z,27.10
2022-10-13T16:08:24.168Z,29.20
2022-10-13T16:10:55.828Z,30.70
2022-10-13T16:13:27.304Z,30.70
2022-10-13T16:16:02.589Z,34.70
2022-10-13T16:18:35.280Z,34.70
2022-10-13T16:21:18.070Z,42.20
2022-10-13T16:23:51.206Z,35.50
2022-10-13T16:26:22.830Z,41.80
2022-10-13T16:28:57.069Z,39.20
2022-10-13T16:31:28.759Z,47.10
2022-10-13T16:34:00.283Z,63.00
2022-10-13T16:36:31.865Z,58.30
2022-10-13T16:39:03.518Z,66.40
2022-10-13T16:41:35.039Z,61.10
2022-10-13T16:44:06.713Z,60.10
2022-10-13T16:46:38.290Z,64.40
2022-10-13T16:49:09.834Z,60.70
2022-10-13T16:51:41.385Z,63.00
2022-10-13T16:54:12.886Z,59.80
2022-10-13T16:56:46.979Z,65.80
2022-10-13T16:59:18.559Z,57.90
2022-10-13T17:01:50.489Z,62.10
2022-10-13T17:04:22.415Z,69.60
2022-10-13T17:06:54.204Z,60.70
2022-10-13T17:09:25.974Z,62.90
2022-10-13T17:11:57.503Z,66.10
2022-10-13T17:14:29.394Z,63.30
2022-10-13T17:17:00.854Z,62.20
2022-10-13T17:19:32.385Z,61.50
2022-10-13T17:22:04.047Z,62.30
2022-10-13T17:24:35.717Z,58.20
2022-10-13T17:27:07.377Z,60.50
2022-10-13T17:29:39.240Z,58.20
2022-10-13T17:32:11.092Z,52.10
2022-10-13T17:34:42.769Z,78.20
2022-10-13T17:37:15.852Z,60.60
2022-10-13T17:39:47.540Z,48.30
2022-10-13T17:42:19.064Z,54.50
2022-10-13T17:44:52.107Z,57.00
2022-10-13T17:47:23.923Z,67.40
2022-10-13T17:49:56.806Z,58.80
2022-10-13T17:52:28.982Z,51.80
2022-10-13T17:55:00.621Z,53.30
2022-10-13T17:57:33.564Z,55.30
2022-10-13T18:00:07.936Z,55.00
2022-10-13T18:02:39.597Z,58.10
2022-10-13T18:05:12.111Z,80.60
2022-10-13T18:07:43.708Z,90.50
2022-10-13T18:10:17.898Z,76.10
2022-10-13T18:12:50.422Z,111.50
2022-10-13T18:15:21.951Z,88.60
2022-10-13T18:17:53.838Z,91.30
2022-10-13T18:20:25.483Z,90.70
2022-10-13T18:22:58.889Z,82.20
2022-10-13T18:25:30.534Z,78.70
2022-10-13T18:28:03.754Z,75.60
2022-10-13T18:30:36.522Z,71.50
2022-10-13T18:33:10.745Z,67.50
2022-10-13T18:35:43.417Z,70.50
2022-10-13T18:38:20.500Z,69.30
2022-10-13T18:40:53.088Z,87.40
2022-10-13T18:43:24.547Z,76.20
2022-10-13T18:45:59.586Z,84.90
2022-10-13T18:48:31.994Z,76.20
2022-10-13T18:51:08.312Z,79.00
2022-10-13T18:53:41.676Z,81.90
2022-10-13T18:56:16.208Z,83.80
2022-10-13T18:58:48.108Z,87.70
2022-10-13T19:01:23.787Z,77.10
2022-10-13T19:03:59.946Z,88.60
2022-10-13T19:06:35.335Z,92.10
2022-10-13T19:09:09.429Z,93.50
2022-10-13T19:11:41.791Z,92.20
2022-10-13T19:14:15.362Z,132.20
2022-10-13T19:16:46.996Z,124.90
2022-10-13T19:19:19.150Z,90.80
2022-10-13T19:21:51.042Z,106.80
2022-10-13T19:24:22.640Z,85.60
2022-10-13T19:26:54.247Z,90.30
2022-10-13T19:29:26.312Z,100.80
2022-10-13T19:31:58.174Z,103.20
2022-10-13T19:34:29.866Z,84.80
2022-10-13T19:37:03.717Z,88.80
2022-10-13T19:39:35.893Z,84.60
2022-10-13T19:42:08.170Z,78.60
2022-10-13T19:44:39.723Z,80.80
2022-10-13T19:47:11.943Z,70.10
2022-10-13T19:49:43.814Z,77.30
2022-10-13T19:52:15.869Z,80.60
2022-10-13T19:54:48.291Z,75.50
2022-10-13T19:57:20.134Z,77.00
2022-10-13T19:59:52.084Z,75.30
2022-10-13T20:02:26.242Z,74.40
2022-10-13T20:04:57.797Z,65.70
2022-10-13T20:07:29.316Z,69.10
2022-10-13T20:10:00.905Z,67.10
2022-10-13T20:12:32.521Z,66.90
2022-10-13T20:15:04.174Z,66.20
2022-10-13T20:17:35.808Z,67.70
2022-10-13T20:20:10.384Z,66.70
2022-10-13T20:22:44.699Z,70.40
2022-10-13T20:25:19.824Z,67.30
2022-10-13T20:27:51.579Z,67.20
2022-10-13T20:30:23.011Z,56.90
2022-10-13T20:32:54.423Z,56.50
2022-10-13T20:35:25.895Z,60.60
2022-10-13T20:37:57.367Z,56.10
2022-10-13T20:40:28.774Z,66.80
2022-10-13T20:43:00.406Z,68.40
2022-10-13T20:45:31.964Z,62.50
2022-10-13T20:48:03.464Z,62.70
2022-10-13T20:50:34.980Z,65.90
2022-10-13T20:53:06.825Z,63.20
2022-10-13T20:55:41.857Z,71.10
2022-10-13T20:58:13.479Z,62.50
2022-10-13T21:00:46.724Z,62.70
2022-10-13T21:03:20.445Z,65.10
2022-10-13T21:08:23.935Z,73.70
2022-10-13T21:10:55.553Z,64.70
2022-10-13T21:13:27.573Z,72.30
2022-10-13T21:15:59.050Z,76.90
2022-10-13T21:18:30.618Z,99.70
2022-10-13T21:21:07.123Z,73.60
2022-10-13T21:23:39.076Z,84.80
2022-10-13T21:26:11.641Z,83.90
2022-10-13T21:28:43.162Z,79.70
2022-10-13T21:31:16.559Z,94.10
2022-10-13T21:33:48.456Z,109.70
2022-10-13T21:36:22.737Z,95.70
2022-10-13T21:38:57.377Z,87.40
2022-10-13T21:41:29.582Z,86.50
2022-10-13T21:44:01.287Z,82.70
2022-10-13T21:46:35.377Z,79.70
2022-10-13T21:49:07.868Z,81.10
2022-10-13T21:51:41.486Z,76.20
2022-10-13T21:54:15.160Z,77.70
2022-10-13T21:59:16.746Z,71.80
2022-10-13T22:01:48.301Z,77.20
2022-10-13T22:04:19.867Z,73.60
2022-10-13T22:06:51.423Z,76.20
2022-10-13T22:09:22.908Z,64.50
2022-10-13T22:11:56.566Z,70.60
2022-10-13T22:14:28.425Z,64.20
2022-10-13T22:16:59.853Z,70.60
2022-10-13T22:19:31.345Z,77.90
2022-10-13T22:22:02.969Z,78.70
2022-10-13T22:24:35.392Z,78.00
2022-10-13T22:27:06.854Z,77.30
2022-10-13T22:29:38.490Z,75.10
2022-10-13T22:32:09.991Z,78.60
2022-10-13T22:34:42.496Z,79.60
2022-10-13T22:37:13.950Z,86.80
2022-10-13T22:39:45.345Z,84.50
2022-10-13T22:42:16.845Z,111.70
2022-10-13T22:44:48.465Z,105.80
2022-10-13T22:47:20.121Z,105.50
2022-10-13T22:49:52.549Z,105.30
2022-10-13T22:52:24.101Z,105.80
2022-10-13T22:54:55.614Z,99.10
2022-10-13T22:57:27.293Z,98.80
2022-10-13T22:59:58.970Z,74.40
2022-10-13T23:02:30.407Z,79.80
2022-10-13T23:05:01.880Z,73.00
2022-10-13T23:07:33.335Z,68.60
2022-10-13T23:10:05.310Z,65.70
2022-10-13T23:12:36.839Z,63.80
2022-10-13T23:15:12.019Z,61.20
2022-10-13T23:17:43.740Z,61.30
2022-10-13T23:20:15.544Z,58.60
2022-10-13T23:22:47.463Z,59.50
2022-10-13T23:25:18.970Z,56.20
2022-10-13T23:27:50.446Z,61.90
2022-10-13T23:30:22.210Z,58.60
2022-10-13T23:32:53.679Z,57.50
2022-10-13T23:35:25.227Z,55.60
2022-10-13T23:37:56.786Z,56.40
2022-10-13T23:40:28.448Z,52.40
2022-10-13T23:42:59.920Z,55.60
2022-10-13T23:45:31.465Z,50.50
2022-10-13T23:48:02.972Z,57.20
2022-10-13T23:50:35.110Z,57.40
2022-10-13T23:53:06.526Z,55.90
2022-10-13T23:55:43.213Z,58.10
2022-10-13T23:58:15.064Z,66.30
